sensor_id;sensor_type;location;lat;lon;timestamp;pressure;altitude;pressure_sealevel;temperature;humidity
35888;BME280;21990;42.540;23.496;2022-12-18T00:02:03;94191.97;;;8.07;100.00
35888;BME280;21990;42.540;23.496;2022-12-18T00:04:29;94188.66;;;8.08;100.00
35888;BME280;21990;42.540;23.496;2022-12-18T00:06:54;94201.13;;;8.02;100.00
35888;BME280;21990;42.540;23.496;2022-12-18T00:09:20;94199.06;;;7.97;100.00
35888;BME280;21990;42.540;23.496;2022-12-18T00:11:46;94206.44;;;7.94;100.00
35888;BME280;21990;42.540;23.496;2022-12-18T00:14:13;94203.38;;;7.92;100.00
35888;BME280;21990;42.540;23.496;2022-12-18T00:16:38;94205.66;;;7.94;100.00
35888;BME280;21990;42.540;23.496;2022-12-18T00:19:04;94209.75;;;7.93;100.00
35888;BME280;21990;42.540;23.496;2022-12-18T00:21:31;94209.22;;;7.94;100.00
35888;BME280;21990;42.540;23.496;2022-12-18T00:23:58;94215.81;;;7.86;100.00
35888;BME280;21990;42.540;23.496;2022-12-18T00:26:29;94231.59;;;7.83;100.00
35888;BME280;21990;42.540;23.496;2022-12-18T00:28:58;94229.53;;;7.78;100.00
35888;BME280;21990;42.540;23.496;2022-12-18T00:31:25;94229.97;;;7.71;100.00
35888;BME280;21990;42.540;23.496;2022-12-18T00:33:51;94242.22;;;7.68;100.00
35888;BME280;21990;42.540;23.496;2022-12-18T00:36:19;94232.44;;;7.58;100.00
35888;BME280;21990;42.540;23.496;2022-12-18T00:38:46;94232.94;;;7.56;100.00
35888;BME280;21990;42.540;23.496;2022-12-18T00:41:14;94234.72;;;7.59;100.00
35888;BME280;21990;42.540;23.496;2022-12-18T00:44:01;94233.94;;;7.53;100.00
35888;BME280;21990;42.540;23.496;2022-12-18T00:46:26;94241.03;;;7.49;100.00
35888;BME280;21990;42.540;23.496;2022-12-18T00:48:52;94239.00;;;7.49;100.00
35888;BME280;21990;42.540;23.496;2022-12-18T00:51:17;94241.25;;;7.45;100.00
35888;BME280;21990;42.540;23.496;2022-12-18T00:53:43;94229.00;;;7.43;100.00
35888;BME280;21990;42.540;23.496;2022-12-18T00:56:08;94231.50;;;7.35;100.00
35888;BME280;21990;42.540;23.496;2022-12-18T00:58:34;94236.59;;;7.37;100.00
35888;BME280;21990;42.540;23.496;2022-12-18T01:00:59;94247.31;;;7.38;100.00
35888;BME280;21990;42.540;23.496;2022-12-18T01:03:25;94236.53;;;7.31;100.00
35888;BME280;21990;42.540;23.496;2022-12-18T01:05:50;94239.06;;;7.29;100.00
35888;BME280;21990;42.540;23.496;2022-12-18T01:08:16;94238.81;;;7.27;100.00
35888;BME280;21990;42.540;23.496;2022-12-18T01:10:41;94247.69;;;7.26;100.00
35888;BME280;21990;42.540;23.496;2022-12-18T01:13:07;94242.31;;;7.22;100.00
35888;BME280;21990;42.540;23.496;2022-12-18T01:15:33;94245.13;;;7.22;100.00
35888;BME280;21990;42.540;23.496;2022-12-18T01:17:58;94258.84;;;7.20;99.63
35888;BME280;21990;42.540;23.496;2022-12-18T01:20:24;94251.88;;;7.10;100.00
35888;BME280;21990;42.540;23.496;2022-12-18T01:22:49;94251.31;;;7.06;100.00
35888;BME280;21990;42.540;23.496;2022-12-18T01:25:15;94264.78;;;7.02;99.69
35888;BME280;21990;42.540;23.496;2022-12-18T01:27:40;94266.53;;;6.99;99.24
35888;BME280;21990;42.540;23.496;2022-12-18T01:30:06;94271.38;;;6.99;100.00
35888;BME280;21990;42.540;23.496;2022-12-18T01:32:32;94264.34;;;6.89;100.00
35888;BME280;21990;42.540;23.496;2022-12-18T01:34:58;94275.09;;;6.90;99.86
35888;BME280;21990;42.540;23.496;2022-12-18T01:37:24;94272.97;;;6.85;99.77
35888;BME280;21990;42.540;23.496;2022-12-18T01:39:49;94268.38;;;6.82;98.94
35888;BME280;21990;42.540;23.496;2022-12-18T01:42:15;94273.41;;;6.78;99.45
35888;BME280;21990;42.540;23.496;2022-12-18T01:45:04;94277.47;;;6.77;99.41
35888;BME280;21990;42.540;23.496;2022-12-18T01:52:46;94278.63;;;6.65;98.98
35888;BME280;21990;42.540;23.496;2022-12-18T01:55:13;94276.00;;;6.61;98.39
35888;BME280;21990;42.540;23.496;2022-12-18T01:57:40;94280.84;;;6.61;98.47
35888;BME280;21990;42.540;23.496;2022-12-18T02:00:10;94275.16;;;6.55;97.95
35888;BME280;21990;42.540;23.496;2022-12-18T02:02:36;94278.44;;;6.54;97.86
35888;BME280;21990;42.540;23.496;2022-12-18T02:05:03;94284.56;;;6.52;98.53
35888;BME280;21990;42.540;23.496;2022-12-18T02:08:20;94286.78;;;6.48;98.29
35888;BME280;21990;42.540;23.496;2022-12-18T02:10:24;94286.50;;;6.46;97.78
35888;BME280;21990;42.540;23.496;2022-12-18T02:13:19;94296.94;;;6.46;97.85
35888;BME280;21990;42.540;23.496;2022-12-18T02:15:46;94303.16;;;6.35;97.26
35888;BME280;21990;42.540;23.496;2022-12-18T02:18:22;94297.50;;;6.30;97.68
35888;BME280;21990;42.540;23.496;2022-12-18T02:23:51;94289.97;;;6.21;97.96
35888;BME280;21990;42.540;23.496;2022-12-18T02:26:36;94292.78;;;6.21;98.28
35888;BME280;21990;42.540;23.496;2022-12-18T02:29:11;94301.94;;;6.22;97.82
35888;BME280;21990;42.540;23.496;2022-12-18T02:31:51;94303.63;;;6.13;97.63
35888;BME280;21990;42.540;23.496;2022-12-18T02:34:19;94320.31;;;6.08;98.08
35888;BME280;21990;42.540;23.496;2022-12-18T02:36:47;94320.19;;;6.17;97.88
35888;BME280;21990;42.540;23.496;2022-12-18T02:39:15;94316.16;;;6.18;97.30
35888;BME280;21990;42.540;23.496;2022-12-18T02:41:42;94319.31;;;6.26;97.54
35888;BME280;21990;42.540;23.496;2022-12-18T02:44:11;94319.50;;;6.22;97.18
35888;BME280;21990;42.540;23.496;2022-12-18T02:49:29;94312.38;;;6.21;97.17
35888;BME280;21990;42.540;23.496;2022-12-18T02:57:18;94332.88;;;5.98;96.75
35888;BME280;21990;42.540;23.496;2022-12-18T02:59:57;94323.41;;;5.95;97.39
35888;BME280;21990;42.540;23.496;2022-12-18T03:02:29;94326.97;;;5.96;97.79
35888;BME280;21990;42.540;23.496;2022-12-18T03:07:56;94332.38;;;5.99;97.30
35888;BME280;21990;42.540;23.496;2022-12-18T03:10:28;94331.13;;;6.00;96.97
35888;BME280;21990;42.540;23.496;2022-12-18T03:13:06;94338.75;;;6.00;96.91
35888;BME280;21990;42.540;23.496;2022-12-18T03:15:38;94335.16;;;5.99;96.86
35888;BME280;21990;42.540;23.496;2022-12-18T03:18:12;94341.75;;;5.96;96.77
35888;BME280;21990;42.540;23.496;2022-12-18T03:20:41;94340.13;;;5.90;96.72
35888;BME280;21990;42.540;23.496;2022-12-18T03:23:16;94348.56;;;5.81;97.74
35888;BME280;21990;42.540;23.496;2022-12-18T03:25:44;94345.56;;;5.84;97.11
35888;BME280;21990;42.540;23.496;2022-12-18T03:28:14;94346.19;;;5.88;97.77
35888;BME280;21990;42.540;23.496;2022-12-18T03:30:43;94349.84;;;5.80;97.79
35888;BME280;21990;42.540;23.496;2022-12-18T03:33:18;94342.13;;;5.74;97.59
35888;BME280;21990;42.540;23.496;2022-12-18T03:35:46;94361.31;;;5.82;97.53
35888;BME280;21990;42.540;23.496;2022-12-18T03:38:12;94361.78;;;5.80;97.16
35888;BME280;21990;42.540;23.496;2022-12-18T03:41:29;94369.59;;;5.76;97.30
35888;BME280;21990;42.540;23.496;2022-12-18T03:43:43;94377.81;;;5.80;96.88
35888;BME280;21990;42.540;23.496;2022-12-18T03:46:35;94372.69;;;5.78;97.01
35888;BME280;21990;42.540;23.496;2022-12-18T03:49:12;94382.31;;;5.77;96.49
35888;BME280;21990;42.540;23.496;2022-12-18T03:51:52;94392.94;;;5.73;96.21
35888;BME280;21990;42.540;23.496;2022-12-18T03:54:22;94381.34;;;5.65;96.84
35888;BME280;21990;42.540;23.496;2022-12-18T03:56:54;94402.00;;;5.68;96.64
35888;BME280;21990;42.540;23.496;2022-12-18T03:59:22;94402.66;;;5.63;96.11
35888;BME280;21990;42.540;23.496;2022-12-18T04:01:51;94397.47;;;5.56;96.49
35888;BME280;21990;42.540;23.496;2022-12-18T04:04:18;94401.59;;;5.60;96.88
35888;BME280;21990;42.540;23.496;2022-12-18T04:06:46;94394.66;;;5.56;96.96
35888;BME280;21990;42.540;23.496;2022-12-18T04:09:14;94398.00;;;5.45;96.75
35888;BME280;21990;42.540;23.496;2022-12-18T04:11:41;94407.47;;;5.48;96.37
35888;BME280;21990;42.540;23.496;2022-12-18T04:14:09;94401.19;;;5.38;96.93
35888;BME280;21990;42.540;23.496;2022-12-18T04:16:35;94405.91;;;5.32;96.53
35888;BME280;21990;42.540;23.496;2022-12-18T04:19:00;94412.34;;;5.23;96.60
35888;BME280;21990;42.540;23.496;2022-12-18T04:21:26;94411.75;;;5.19;96.86
35888;BME280;21990;42.540;23.496;2022-12-18T04:23:51;94415.19;;;5.14;97.50
35888;BME280;21990;42.540;23.496;2022-12-18T04:26:17;94420.31;;;5.16;96.96
35888;BME280;21990;42.540;23.496;2022-12-18T04:28:42;94417.56;;;5.07;97.31
35888;BME280;21990;42.540;23.496;2022-12-18T04:31:08;94431.25;;;5.05;97.63
35888;BME280;21990;42.540;23.496;2022-12-18T04:33:33;94421.31;;;5.04;98.05
35888;BME280;21990;42.540;23.496;2022-12-18T04:35:59;94418.41;;;4.98;97.23
35888;BME280;21990;42.540;23.496;2022-12-18T04:38:24;94420.91;;;4.96;97.63
35888;BME280;21990;42.540;23.496;2022-12-18T04:40:50;94419.53;;;4.92;97.29
35888;BME280;21990;42.540;23.496;2022-12-18T04:43:15;94430.53;;;4.95;97.16
35888;BME280;21990;42.540;23.496;2022-12-18T04:45:41;94438.31;;;4.91;97.52
35888;BME280;21990;42.540;23.496;2022-12-18T04:48:06;94442.38;;;4.90;97.68
35888;BME280;21990;42.540;23.496;2022-12-18T04:50:32;94443.63;;;4.89;97.85
35888;BME280;21990;42.540;23.496;2022-12-18T04:52:57;94447.06;;;4.84;96.91
35888;BME280;21990;42.540;23.496;2022-12-18T04:55:25;94448.97;;;4.78;97.24
35888;BME280;21990;42.540;23.496;2022-12-18T04:57:50;94459.66;;;4.79;97.56
35888;BME280;21990;42.540;23.496;2022-12-18T05:00:16;94456.84;;;4.79;97.69
35888;BME280;21990;42.540;23.496;2022-12-18T05:02:42;94457.97;;;4.73;97.63
35888;BME280;21990;42.540;23.496;2022-12-18T05:05:08;94466.19;;;4.76;96.82
35888;BME280;21990;42.540;23.496;2022-12-18T05:07:33;94457.81;;;4.76;96.94
35888;BME280;21990;42.540;23.496;2022-12-18T05:09:59;94463.56;;;4.73;97.02
35888;BME280;21990;42.540;23.496;2022-12-18T05:12:24;94468.69;;;4.74;96.62
35888;BME280;21990;42.540;23.496;2022-12-18T05:14:50;94474.56;;;4.76;96.73
35888;BME280;21990;42.540;23.496;2022-12-18T05:17:16;94475.50;;;4.73;96.66
35888;BME280;21990;42.540;23.496;2022-12-18T05:19:41;94491.94;;;4.71;96.21
35888;BME280;21990;42.540;23.496;2022-12-18T05:22:07;94488.25;;;4.65;96.32
35888;BME280;21990;42.540;23.496;2022-12-18T05:24:33;94486.09;;;4.60;96.43
35888;BME280;21990;42.540;23.496;2022-12-18T05:26:59;94487.06;;;4.57;96.21
35888;BME280;21990;42.540;23.496;2022-12-18T05:29:24;94488.44;;;4.62;96.62
35888;BME280;21990;42.540;23.496;2022-12-18T05:31:50;94497.28;;;4.60;95.94
35888;BME280;21990;42.540;23.496;2022-12-18T05:34:16;94510.94;;;4.58;95.82
35888;BME280;21990;42.540;23.496;2022-12-18T05:36:41;94510.44;;;4.60;95.43
35888;BME280;21990;42.540;23.496;2022-12-18T05:39:07;94509.66;;;4.59;95.22
35888;BME280;21990;42.540;23.496;2022-12-18T05:41:33;94505.03;;;4.56;95.35
35888;BME280;21990;42.540;23.496;2022-12-18T05:43:59;94509.41;;;4.48;95.04
35888;BME280;21990;42.540;23.496;2022-12-18T05:46:25;94524.91;;;4.49;94.88
35888;BME280;21990;42.540;23.496;2022-12-18T05:48:51;94518.72;;;4.45;95.61
35888;BME280;21990;42.540;23.496;2022-12-18T05:51:19;94530.53;;;4.40;95.46
35888;BME280;21990;42.540;23.496;2022-12-18T05:53:46;94525.56;;;4.44;95.58
35888;BME280;21990;42.540;23.496;2022-12-18T05:56:20;94526.97;;;4.40;95.90
35888;BME280;21990;42.540;23.496;2022-12-18T05:58:46;94526.97;;;4.40;94.92
35888;BME280;21990;42.540;23.496;2022-12-18T06:01:17;94529.72;;;4.49;95.06
35888;BME280;21990;42.540;23.496;2022-12-18T06:03:43;94539.03;;;4.46;94.58
35888;BME280;21990;42.540;23.496;2022-12-18T06:06:19;94533.00;;;4.47;94.45
35888;BME280;21990;42.540;23.496;2022-12-18T06:08:45;94537.50;;;4.45;95.06
35888;BME280;21990;42.540;23.496;2022-12-18T06:11:11;94532.41;;;4.43;94.63
35888;BME280;21990;42.540;23.496;2022-12-18T06:13:37;94542.28;;;4.44;94.33
35888;BME280;21990;42.540;23.496;2022-12-18T06:16:07;94548.66;;;4.45;94.87
35888;BME280;21990;42.540;23.496;2022-12-18T06:18:33;94551.75;;;4.47;94.93
35888;BME280;21990;42.540;23.496;2022-12-18T06:20:59;94555.31;;;4.47;94.25
35888;BME280;21990;42.540;23.496;2022-12-18T06:23:25;94560.31;;;4.43;94.43
35888;BME280;21990;42.540;23.496;2022-12-18T06:25:51;94559.97;;;4.41;94.25
35888;BME280;21990;42.540;23.496;2022-12-18T06:28:17;94554.72;;;4.43;94.04
35888;BME280;21990;42.540;23.496;2022-12-18T06:30:44;94561.22;;;4.40;93.93
35888;BME280;21990;42.540;23.496;2022-12-18T06:33:10;94565.41;;;4.45;94.40
35888;BME280;21990;42.540;23.496;2022-12-18T06:35:35;94562.78;;;4.41;93.91
35888;BME280;21990;42.540;23.496;2022-12-18T06:38:01;94561.69;;;4.39;93.96
35888;BME280;21990;42.540;23.496;2022-12-18T06:40:27;94577.22;;;4.40;93.86
35888;BME280;21990;42.540;23.496;2022-12-18T06:42:53;94571.75;;;4.36;93.60
35888;BME280;21990;42.540;23.496;2022-12-18T06:45:18;94584.34;;;4.32;92.90
35888;BME280;21990;42.540;23.496;2022-12-18T06:47:44;94589.28;;;4.37;93.51
35888;BME280;21990;42.540;23.496;2022-12-18T06:50:10;94598.31;;;4.32;93.18
35888;BME280;21990;42.540;23.496;2022-12-18T06:52:35;94594.88;;;4.37;93.43
35888;BME280;21990;42.540;23.496;2022-12-18T06:55:02;94590.22;;;4.34;93.06
35888;BME280;21990;42.540;23.496;2022-12-18T06:57:28;94586.03;;;4.29;93.41
35888;BME280;21990;42.540;23.496;2022-12-18T06:59:53;94589.44;;;4.33;93.08
35888;BME280;21990;42.540;23.496;2022-12-18T07:02:19;94608.03;;;4.36;92.96
35888;BME280;21990;42.540;23.496;2022-12-18T07:04:44;94606.50;;;4.35;93.25
35888;BME280;21990;42.540;23.496;2022-12-18T07:07:10;94615.97;;;4.38;92.69
35888;BME280;21990;42.540;23.496;2022-12-18T07:09:35;94625.41;;;4.40;92.67
35888;BME280;21990;42.540;23.496;2022-12-18T07:12:01;94618.91;;;4.43;92.41
35888;BME280;21990;42.540;23.496;2022-12-18T07:14:26;94622.31;;;4.47;92.15
35888;BME280;21990;42.540;23.496;2022-12-18T07:16:52;94627.41;;;4.49;91.00
35888;BME280;21990;42.540;23.496;2022-12-18T07:19:17;94629.56;;;4.54;92.35
35888;BME280;21990;42.540;23.496;2022-12-18T07:21:43;94617.03;;;4.49;91.93
35888;BME280;21990;42.540;23.496;2022-12-18T07:24:08;94623.38;;;4.50;92.17
35888;BME280;21990;42.540;23.496;2022-12-18T07:26:34;94624.78;;;4.54;91.81
35888;BME280;21990;42.540;23.496;2022-12-18T07:28:59;94624.59;;;4.58;91.71
35888;BME280;21990;42.540;23.496;2022-12-18T07:31:26;94620.41;;;4.53;91.82
35888;BME280;21990;42.540;23.496;2022-12-18T07:33:52;94613.59;;;4.54;91.80
35888;BME280;21990;42.540;23.496;2022-12-18T07:36:18;94625.22;;;4.62;91.48
35888;BME280;21990;42.540;23.496;2022-12-18T07:38:46;94634.06;;;4.60;90.16
35888;BME280;21990;42.540;23.496;2022-12-18T07:41:13;94640.41;;;4.61;91.00
35888;BME280;21990;42.540;23.496;2022-12-18T07:43:40;94634.53;;;4.59;90.61
35888;BME280;21990;42.540;23.496;2022-12-18T07:46:08;94642.13;;;4.58;90.63
35888;BME280;21990;42.540;23.496;2022-12-18T07:48:34;94652.19;;;4.56;91.05
35888;BME280;21990;42.540;23.496;2022-12-18T07:51:01;94648.00;;;4.60;90.29
35888;BME280;21990;42.540;23.496;2022-12-18T07:53:27;94651.72;;;4.66;90.37
35888;BME280;21990;42.540;23.496;2022-12-18T07:55:57;94666.94;;;4.65;90.33
35888;BME280;21990;42.540;23.496;2022-12-18T07:58:24;94668.00;;;4.68;90.22
35888;BME280;21990;42.540;23.496;2022-12-18T08:00:50;94665.53;;;4.70;89.93
35888;BME280;21990;42.540;23.496;2022-12-18T08:03:15;94670.94;;;4.73;89.81
35888;BME280;21990;42.540;23.496;2022-12-18T08:05:41;94664.75;;;4.78;89.61
35888;BME280;21990;42.540;23.496;2022-12-18T08:08:06;94670.16;;;4.73;89.10
35888;BME280;21990;42.540;23.496;2022-12-18T08:10:32;94672.34;;;4.69;88.55
35888;BME280;21990;42.540;23.496;2022-12-18T08:12:57;94686.94;;;4.64;88.87
35888;BME280;21990;42.540;23.496;2022-12-18T08:15:23;94676.53;;;4.64;87.64
35888;BME280;21990;42.540;23.496;2022-12-18T08:17:48;94687.69;;;4.64;87.78
35888;BME280;21990;42.540;23.496;2022-12-18T08:20:14;94679.19;;;4.59;89.10
35888;BME280;21990;42.540;23.496;2022-12-18T08:22:41;94692.22;;;4.62;88.44
35888;BME280;21990;42.540;23.496;2022-12-18T08:25:07;94695.78;;;4.53;88.03
35888;BME280;21990;42.540;23.496;2022-12-18T08:27:33;94696.72;;;4.50;88.14
35888;BME280;21990;42.540;23.496;2022-12-18T08:29:59;94697.34;;;4.54;88.71
35888;BME280;21990;42.540;23.496;2022-12-18T08:32:26;94697.66;;;4.47;88.09
35888;BME280;21990;42.540;23.496;2022-12-18T08:34:52;94702.59;;;4.52;88.53
35888;BME280;21990;42.540;23.496;2022-12-18T08:37:17;94700.91;;;4.55;88.42
35888;BME280;21990;42.540;23.496;2022-12-18T08:39:43;94702.16;;;4.54;88.44
35888;BME280;21990;42.540;23.496;2022-12-18T08:42:08;94702.59;;;4.52;88.43
35888;BME280;21990;42.540;23.496;2022-12-18T08:44:53;94696.25;;;4.61;88.94
35888;BME280;21990;42.540;23.496;2022-12-18T08:47:18;94698.13;;;4.55;88.83
35888;BME280;21990;42.540;23.496;2022-12-18T08:49:44;94700.59;;;4.62;88.40
35888;BME280;21990;42.540;23.496;2022-12-18T08:52:09;94701.03;;;4.60;88.39
35888;BME280;21990;42.540;23.496;2022-12-18T08:54:35;94708.81;;;4.56;87.88
35888;BME280;21990;42.540;23.496;2022-12-18T08:57:00;94703.53;;;4.58;87.83
35888;BME280;21990;42.540;23.496;2022-12-18T08:59:27;94700.13;;;4.54;87.82
35888;BME280;21990;42.540;23.496;2022-12-18T09:01:54;94702.59;;;4.52;88.71
35888;BME280;21990;42.540;23.496;2022-12-18T09:04:20;94701.66;;;4.55;88.47
35888;BME280;21990;42.540;23.496;2022-12-18T09:06:46;94703.88;;;4.51;88.50
35888;BME280;21990;42.540;23.496;2022-12-18T09:09:11;94693.00;;;4.53;88.88
35888;BME280;21990;42.540;23.496;2022-12-18T09:11:37;94696.72;;;4.50;88.62
35888;BME280;21990;42.540;23.496;2022-12-18T09:14:02;94698.13;;;4.46;89.16
35888;BME280;21990;42.540;23.496;2022-12-18T09:16:29;94706.78;;;4.48;89.62
35888;BME280;21990;42.540;23.496;2022-12-18T09:18:55;94703.53;;;4.49;89.75
35888;BME280;21990;42.540;23.496;2022-12-18T09:21:26;94696.25;;;4.52;89.25
35888;BME280;21990;42.540;23.496;2022-12-18T09:23:53;94698.88;;;4.55;89.17
35888;BME280;21990;42.540;23.496;2022-12-18T09:26:20;94700.75;;;4.49;89.28
35888;BME280;21990;42.540;23.496;2022-12-18T09:28:46;94705.09;;;4.50;89.95
35888;BME280;21990;42.540;23.496;2022-12-18T09:31:12;94702.63;;;4.43;90.07
35888;BME280;21990;42.540;23.496;2022-12-18T09:33:38;94696.41;;;4.48;90.59
35888;BME280;21990;42.540;23.496;2022-12-18T09:36:05;94695.78;;;4.53;90.39
35888;BME280;21990;42.540;23.496;2022-12-18T09:38:31;94702.91;;;4.45;90.58
35888;BME280;21990;42.540;23.496;2022-12-18T09:44:01;94699.50;;;4.59;90.77
35888;BME280;21990;42.540;23.496;2022-12-18T09:46:33;94702.59;;;4.61;91.06
35888;BME280;21990;42.540;23.496;2022-12-18T09:49:03;94699.34;;;4.63;90.77
35888;BME280;21990;42.540;23.496;2022-12-18T09:52:23;94698.25;;;4.69;91.06
35888;BME280;21990;42.540;23.496;2022-12-18T09:54:32;94693.28;;;4.64;90.90
35888;BME280;21990;42.540;23.496;2022-12-18T09:56:59;94692.06;;;4.65;91.26
35888;BME280;21990;42.540;23.496;2022-12-18T09:59:30;94696.25;;;4.70;92.04
35888;BME280;21990;42.540;23.496;2022-12-18T10:01:56;94693.75;;;4.72;92.60
35888;BME280;21990;42.540;23.496;2022-12-18T10:04:22;94687.81;;;4.79;91.16
35888;BME280;21990;42.540;23.496;2022-12-18T10:06:55;94694.50;;;4.72;91.60
35888;BME280;21990;42.540;23.496;2022-12-18T10:09:53;94684.56;;;4.81;91.27
35888;BME280;21990;42.540;23.496;2022-12-18T10:15:40;94694.03;;;4.83;89.25
35888;BME280;21990;42.540;23.496;2022-12-18T10:18:30;94696.97;;;4.79;89.65
35888;BME280;21990;42.540;23.496;2022-12-18T10:21:13;94678.09;;;4.74;89.39
35888;BME280;21990;42.540;23.496;2022-12-18T10:26:31;94692.19;;;4.80;88.05
35888;BME280;21990;42.540;23.496;2022-12-18T10:28:58;94693.13;;;4.77;88.83
35888;BME280;21990;42.540;23.496;2022-12-18T10:31:33;94692.19;;;4.80;88.25
35888;BME280;21990;42.540;23.496;2022-12-18T10:34:02;94687.69;;;4.73;88.68
35888;BME280;21990;42.540;23.496;2022-12-18T10:36:30;94697.63;;;4.74;88.22
35888;BME280;21990;42.540;23.496;2022-12-18T10:39:19;94688.66;;;4.70;88.71
35888;BME280;21990;42.540;23.496;2022-12-18T10:41:48;94696.06;;;4.55;88.42
35888;BME280;21990;42.540;23.496;2022-12-18T10:44:23;94698.75;;;4.59;89.35
35888;BME280;21990;42.540;23.496;2022-12-18T10:46:54;94692.66;;;4.60;89.31
35888;BME280;21990;42.540;23.496;2022-12-18T10:49:33;94692.22;;;4.62;89.06
35888;BME280;21990;42.540;23.496;2022-12-18T10:52:16;94685.69;;;4.65;88.70
35888;BME280;21990;42.540;23.496;2022-12-18T10:54:51;94688.78;;;4.67;88.84
35888;BME280;21990;42.540;23.496;2022-12-18T10:59:59;94685.22;;;4.66;88.69
35888;BME280;21990;42.540;23.496;2022-12-18T11:04:57;94683.97;;;4.67;88.06
35888;BME280;21990;42.540;23.496;2022-12-18T11:07:23;94686.63;;;4.62;86.86
35888;BME280;21990;42.540;23.496;2022-12-18T11:10:00;94689.41;;;4.62;87.21
35888;BME280;21990;42.540;23.496;2022-12-18T11:12:28;94688.94;;;4.63;86.91
35888;BME280;21990;42.540;23.496;2022-12-18T11:14:57;94687.53;;;4.68;87.13
35888;BME280;21990;42.540;23.496;2022-12-18T11:17:42;94687.88;;;4.70;87.40
35888;BME280;21990;42.540;23.496;2022-12-18T11:20:33;94688.47;;;4.65;86.55
35888;BME280;21990;42.540;23.496;2022-12-18T11:23:02;94680.28;;;4.61;86.31
35888;BME280;21990;42.540;23.496;2022-12-18T11:25:29;94685.41;;;4.54;86.76
35888;BME280;21990;42.540;23.496;2022-12-18T11:28:00;94698.91;;;4.46;86.89
35888;BME280;21990;42.540;23.496;2022-12-18T11:30:34;94702.13;;;4.45;86.76
35888;BME280;21990;42.540;23.496;2022-12-18T11:33:09;94704.94;;;4.45;86.83
35888;BME280;21990;42.540;23.496;2022-12-18T11:36:02;94696.09;;;4.37;86.56
35888;BME280;21990;42.540;23.496;2022-12-18T11:38:32;94706.34;;;4.31;86.56
35888;BME280;21990;42.540;23.496;2022-12-18T11:44:11;94710.19;;;4.24;85.57
35888;BME280;21990;42.540;23.496;2022-12-18T11:46:52;94709.75;;;4.26;85.80
35888;BME280;21990;42.540;23.496;2022-12-18T11:49:34;94718.56;;;4.24;84.76
35888;BME280;21990;42.540;23.496;2022-12-18T11:54:37;94718.56;;;4.24;84.32
35888;BME280;21990;42.540;23.496;2022-12-18T11:57:25;94716.88;;;4.27;83.45
35888;BME280;21990;42.540;23.496;2022-12-18T12:00:16;94711.91;;;4.31;83.28
35888;BME280;21990;42.540;23.496;2022-12-18T12:05:49;94710.53;;;4.36;81.96
35888;BME280;21990;42.540;23.496;2022-12-18T12:09:02;94698.88;;;4.37;81.93
35888;BME280;21990;42.540;23.496;2022-12-18T12:11:42;94700.13;;;4.36;82.19
35888;BME280;21990;42.540;23.496;2022-12-18T12:14:37;94696.72;;;4.32;81.43
35888;BME280;21990;42.540;23.496;2022-12-18T12:19:52;94700.59;;;4.35;81.25
35888;BME280;21990;42.540;23.496;2022-12-18T12:34:06;94702.00;;;4.30;79.72
35888;BME280;21990;42.540;23.496;2022-12-18T12:39:10;94697.97;;;4.22;80.31
35888;BME280;21990;42.540;23.496;2022-12-18T12:41:38;94707.72;;;4.26;79.82
35888;BME280;21990;42.540;23.496;2022-12-18T12:44:31;94703.38;;;4.25;79.71
35888;BME280;21990;42.540;23.496;2022-12-18T12:47:01;94709.28;;;4.18;78.26
35888;BME280;21990;42.540;23.496;2022-12-18T12:49:31;94704.16;;;4.17;79.03
35888;BME280;21990;42.540;23.496;2022-12-18T12:52:05;94712.06;;;4.18;79.59
35888;BME280;21990;42.540;23.496;2022-12-18T12:54:34;94714.22;;;4.14;80.27
35888;BME280;21990;42.540;23.496;2022-12-18T12:57:11;94717.94;;;4.20;80.30
35888;BME280;21990;42.540;23.496;2022-12-18T13:10:13;94729.56;;;4.28;80.16
35888;BME280;21990;42.540;23.496;2022-12-18T13:12:59;94729.91;;;4.30;80.81
35888;BME280;21990;42.540;23.496;2022-12-18T13:15:46;94736.09;;;4.25;80.63
35888;BME280;21990;42.540;23.496;2022-12-18T13:25:52;94751.59;;;4.26;81.76
35888;BME280;21990;42.540;23.496;2022-12-18T13:33:45;94758.25;;;4.28;81.73
35888;BME280;21990;42.540;23.496;2022-12-18T13:41:41;94757.19;;;4.35;82.36
35888;BME280;21990;42.540;23.496;2022-12-18T13:46:47;94768.34;;;4.35;82.10
35888;BME280;21990;42.540;23.496;2022-12-18T13:51:41;94783.38;;;4.38;81.32
35888;BME280;21990;42.540;23.496;2022-12-18T13:56:49;94784.47;;;4.40;81.01
35888;BME280;21990;42.540;23.496;2022-12-18T13:59:23;94790.53;;;4.39;81.25
35888;BME280;21990;42.540;23.496;2022-12-18T14:02:04;94792.09;;;4.40;81.63
35888;BME280;21990;42.540;23.496;2022-12-18T14:04:35;94794.09;;;4.39;81.89
35888;BME280;21990;42.540;23.496;2022-12-18T14:07:11;94785.88;;;4.36;81.84
35888;BME280;21990;42.540;23.496;2022-12-18T14:09:42;94788.66;;;4.36;82.13
35888;BME280;21990;42.540;23.496;2022-12-18T14:12:19;94789.41;;;4.36;81.96
35888;BME280;21990;42.540;23.496;2022-12-18T14:15:11;94789.41;;;4.36;82.35
35888;BME280;21990;42.540;23.496;2022-12-18T14:17:40;94794.06;;;4.30;82.33
35888;BME280;21990;42.540;23.496;2022-12-18T14:20:13;94801.34;;;4.37;81.81
35888;BME280;21990;42.540;23.496;2022-12-18T14:22:43;94796.41;;;4.41;82.11
35888;BME280;21990;42.540;23.496;2022-12-18T14:27:42;94805.88;;;4.52;81.91
35888;BME280;21990;42.540;23.496;2022-12-18T14:35:36;94804.47;;;4.57;81.26
35888;BME280;21990;42.540;23.496;2022-12-18T14:38:26;94811.31;;;4.56;81.50
35888;BME280;21990;42.540;23.496;2022-12-18T14:41:00;94818.28;;;4.51;81.85
35888;BME280;21990;42.540;23.496;2022-12-18T14:43:28;94806.78;;;4.40;82.17
35888;BME280;21990;42.540;23.496;2022-12-18T14:45:54;94815.78;;;4.44;81.95
35888;BME280;21990;42.540;23.496;2022-12-18T14:48:21;94816.41;;;4.48;82.45
35888;BME280;21990;42.540;23.496;2022-12-18T14:51:15;94814.56;;;4.54;82.20
35888;BME280;21990;42.540;23.496;2022-12-18T14:54:02;94811.44;;;4.52;82.82
35888;BME280;21990;42.540;23.496;2022-12-18T14:56:37;94814.72;;;4.60;82.95
35888;BME280;21990;42.540;23.496;2022-12-18T14:59:27;94815.34;;;4.55;81.96